createdAt,value
2018-05-17T00:00:08.879Z,14.35
2018-05-17T00:01:14.265Z,15.60
2018-05-17T00:02:19.847Z,11.65
2018-05-17T00:03:25.195Z,13.50
2018-05-17T00:04:30.659Z,12.85
2018-05-17T00:05:36.359Z,17.45
2018-05-17T00:06:41.773Z,11.50
2018-05-17T00:07:47.271Z,13.30
2018-05-17T00:08:52.709Z,10.63
2018-05-17T00:09:58.065Z,13.07
2018-05-17T00:11:03.606Z,14.13
2018-05-17T00:12:09.355Z,14.50
2018-05-17T00:13:14.870Z,12.23
2018-05-17T00:14:20.721Z,11.32
2018-05-17T00:15:26.102Z,14.20
2018-05-17T00:16:31.799Z,13.80
2018-05-17T00:17:37.199Z,13.48
2018-05-17T00:18:42.569Z,12.75
2018-05-17T00:19:47.938Z,11.82
2018-05-17T00:20:53.332Z,11.57
2018-05-17T00:21:59.599Z,10.00
2018-05-17T00:23:05.291Z,9.60
2018-05-17T00:24:10.685Z,11.75
2018-05-17T00:25:16.096Z,10.23
2018-05-17T00:26:21.459Z,9.23
2018-05-17T00:27:26.828Z,10.60
2018-05-17T00:28:32.205Z,11.02
2018-05-17T00:29:37.658Z,10.25
2018-05-17T00:30:43.643Z,9.70
2018-05-17T00:31:49.085Z,9.10
2018-05-17T00:32:54.459Z,8.05
2018-05-17T00:34:01.091Z,7.83
2018-05-17T00:35:06.454Z,8.30
2018-05-17T00:36:12.116Z,11.50
2018-05-17T00:37:17.696Z,8.85
2018-05-17T00:38:23.393Z,8.18
2018-05-17T00:39:28.778Z,8.32
2018-05-17T00:40:34.429Z,8.02
2018-05-17T00:41:40.382Z,8.57
2018-05-17T00:42:45.748Z,9.80
2018-05-17T00:43:51.071Z,9.33
2018-05-17T00:44:56.386Z,8.27
2018-05-17T00:46:01.682Z,9.40
2018-05-17T00:47:07.070Z,10.15
2018-05-17T00:48:12.409Z,10.57
2018-05-17T00:49:17.809Z,11.10
2018-05-17T00:50:23.184Z,10.23
2018-05-17T00:51:28.510Z,9.60
2018-05-17T00:52:34.189Z,11.38
2018-05-17T00:53:39.947Z,9.75
2018-05-17T00:54:45.280Z,10.95
2018-05-17T00:55:50.565Z,14.15
2018-05-17T00:56:55.943Z,13.88
2018-05-17T00:58:01.312Z,12.70
2018-05-17T00:59:06.787Z,12.88
2018-05-17T01:00:12.137Z,12.77
2018-05-17T01:01:18.209Z,11.63
2018-05-17T01:02:23.789Z,13.40
2018-05-17T01:03:29.434Z,13.15
2018-05-17T01:04:34.876Z,12.77
2018-05-17T01:05:40.300Z,10.55
2018-05-17T01:06:45.849Z,16.80
2018-05-17T01:07:51.365Z,12.93
2018-05-17T01:08:57.310Z,12.80
2018-05-17T01:10:02.783Z,10.60
2018-05-17T01:11:08.609Z,12.60
2018-05-17T01:12:14.142Z,10.50
2018-05-17T01:13:20.417Z,8.88
2018-05-17T01:14:26.105Z,11.57
2018-05-17T01:15:32.000Z,14.70
2018-05-17T01:16:37.352Z,15.15
2018-05-17T01:17:42.722Z,16.97
2018-05-17T01:18:48.720Z,10.35
2018-05-17T01:19:54.002Z,11.85
2018-05-17T01:20:59.683Z,12.50
2018-05-17T01:22:05.236Z,10.77
2018-05-17T01:23:10.620Z,9.77
2018-05-17T01:24:16.321Z,11.10
2018-05-17T01:25:21.616Z,10.93
2018-05-17T01:26:27.273Z,10.57
2018-05-17T01:27:32.748Z,7.75
2018-05-17T01:28:38.075Z,9.40
2018-05-17T01:29:43.378Z,7.80
2018-05-17T01:30:48.754Z,7.93
2018-05-17T01:31:54.645Z,6.90
2018-05-17T01:33:00.189Z,6.78
2018-05-17T01:34:05.760Z,7.55
2018-05-17T01:35:11.475Z,6.83
2018-05-17T01:36:16.980Z,7.70
2018-05-17T01:37:27.851Z,8.00
2018-05-17T01:38:33.565Z,6.40
2018-05-17T01:39:39.197Z,6.00
2018-05-17T01:40:44.585Z,6.47
2018-05-17T01:41:49.966Z,6.50
2018-05-17T01:42:55.529Z,6.40
2018-05-17T01:44:01.254Z,6.22
2018-05-17T01:45:07.070Z,7.87
2018-05-17T01:46:12.764Z,8.00
2018-05-17T01:47:18.146Z,8.98
2018-05-17T01:48:23.510Z,6.62
2018-05-17T01:49:28.966Z,7.57
2018-05-17T01:50:34.322Z,8.25
2018-05-17T01:51:41.568Z,10.02
2018-05-17T01:52:51.447Z,10.25
2018-05-17T01:53:59.647Z,8.93
2018-05-17T01:55:06.512Z,8.52
2018-05-17T01:56:20.858Z,10.80
2018-05-17T01:57:27.413Z,9.52
2018-05-17T01:58:32.897Z,8.65
2018-05-17T01:59:39.367Z,8.50
2018-05-17T02:00:45.448Z,7.55
2018-05-17T02:01:51.206Z,10.80
2018-05-17T02:02:57.047Z,8.60
2018-05-17T02:04:02.425Z,9.57
2018-05-17T02:05:08.011Z,9.48
2018-05-17T02:06:13.384Z,10.88
2018-05-17T02:07:18.772Z,7.60
2018-05-17T02:08:25.124Z,9.00
2018-05-17T02:09:31.454Z,6.83
2018-05-17T02:10:37.320Z,7.57
2018-05-17T02:11:43.501Z,9.32
2018-05-17T02:12:48.846Z,8.23
2018-05-17T02:13:54.200Z,8.38
2018-05-17T02:15:00.072Z,7.00
2018-05-17T02:16:05.445Z,6.75
2018-05-17T02:17:10.863Z,8.15
2018-05-17T02:18:16.644Z,6.43
2018-05-17T02:19:22.021Z,7.22
2018-05-17T02:20:27.426Z,6.95
2018-05-17T02:21:32.809Z,6.97
2018-05-17T02:22:38.165Z,7.70
2018-05-17T02:23:43.906Z,7.75
2018-05-17T02:24:49.441Z,8.27
2018-05-17T02:25:55.134Z,7.90
2018-05-17T02:27:00.776Z,7.05
2018-05-17T02:28:06.633Z,8.98
2018-05-17T02:29:12.845Z,7.90
2018-05-17T02:30:19.070Z,8.70
2018-05-17T02:31:24.753Z,9.05
2018-05-17T02:32:31.530Z,9.93
2018-05-17T02:33:37.188Z,8.63
2018-05-17T02:34:42.556Z,12.13
2018-05-17T02:35:48.017Z,9.85
2018-05-17T02:36:53.559Z,11.38
2018-05-17T02:37:58.933Z,11.32
2018-05-17T02:39:05.966Z,10.43
2018-05-17T02:40:11.673Z,10.30
2018-05-17T02:41:17.044Z,9.88
2018-05-17T02:42:22.452Z,9.13
2018-05-17T02:43:28.082Z,8.70
2018-05-17T02:44:34.065Z,8.98
2018-05-17T02:45:39.892Z,11.10
2018-05-17T02:46:45.266Z,8.98
2018-05-17T02:47:50.761Z,9.70
2018-05-17T02:48:56.133Z,10.80
2018-05-17T02:50:01.911Z,12.00
2018-05-17T02:51:07.861Z,9.15
2018-05-17T02:52:13.561Z,11.90
2018-05-17T02:53:19.276Z,10.60
2018-05-17T02:54:24.874Z,10.93
2018-05-17T02:55:30.319Z,9.05
2018-05-17T02:56:36.189Z,11.40
2018-05-17T02:57:41.859Z,11.90
2018-05-17T02:58:47.386Z,10.45
2018-05-17T02:59:52.983Z,10.53
2018-05-17T03:00:59.149Z,11.85
2018-05-17T03:02:04.536Z,9.70
2018-05-17T03:03:09.875Z,10.18
2018-05-17T03:04:15.291Z,11.10
2018-05-17T03:05:20.704Z,8.73
2018-05-17T03:06:26.094Z,9.27
2018-05-17T03:07:31.463Z,9.07
2018-05-17T03:08:36.849Z,8.87
2018-05-17T03:09:42.254Z,8.90
2018-05-17T03:10:47.773Z,9.70
2018-05-17T03:11:53.180Z,7.85
2018-05-17T03:12:58.553Z,9.80
2018-05-17T03:14:03.950Z,9.32
2018-05-17T03:15:09.363Z,8.60
2018-05-17T03:16:14.735Z,9.13
2018-05-17T03:17:20.129Z,9.75
2018-05-17T03:18:25.514Z,12.68
2018-05-17T03:19:31.151Z,10.35
2018-05-17T03:20:36.757Z,8.65
2018-05-17T03:21:42.113Z,8.90
2018-05-17T03:22:47.470Z,8.10
2018-05-17T03:23:52.839Z,8.70
2018-05-17T03:24:58.492Z,9.43
2018-05-17T03:26:04.056Z,9.90
2018-05-17T03:27:09.437Z,10.18
2018-05-17T03:28:14.804Z,13.38
2018-05-17T03:29:20.461Z,10.70
2018-05-17T03:30:26.122Z,8.90
2018-05-17T03:31:31.551Z,9.45
2018-05-17T03:32:36.906Z,11.52
2018-05-17T03:33:42.324Z,12.05
2018-05-17T03:34:47.700Z,12.18
2018-05-17T03:35:53.501Z,15.30
2018-05-17T03:36:59.214Z,14.40
2018-05-17T03:38:04.598Z,14.75
2018-05-17T03:39:09.976Z,17.92
2018-05-17T03:40:15.386Z,18.37
2018-05-17T03:41:20.765Z,17.75
2018-05-17T03:42:26.142Z,13.62
2018-05-17T03:43:31.511Z,18.90
2018-05-17T03:44:36.861Z,14.05
2018-05-17T03:45:42.986Z,13.02
2018-05-17T03:46:48.362Z,11.73
2018-05-17T03:47:53.715Z,14.97
2018-05-17T03:48:59.418Z,12.80
2018-05-17T03:50:04.758Z,16.37
2018-05-17T03:51:10.316Z,14.20
2018-05-17T03:52:15.692Z,9.98
2018-05-17T03:53:21.350Z,13.43
2018-05-17T03:54:27.039Z,10.38
2018-05-17T03:55:32.588Z,11.43
2018-05-17T03:56:37.961Z,10.93
2018-05-17T03:57:43.375Z,9.80
2018-05-17T03:58:49.082Z,9.77
2018-05-17T03:59:54.639Z,10.35
2018-05-17T04:01:04.345Z,9.35
2018-05-17T04:02:15.129Z,9.48
2018-05-17T04:03:25.768Z,9.77
2018-05-17T04:06:41.232Z,8.85
2018-05-17T04:07:46.833Z,8.93
2018-05-17T04:08:52.197Z,8.75
2018-05-17T04:09:57.886Z,9.20
2018-05-17T04:11:03.245Z,7.87
2018-05-17T04:12:08.601Z,8.52
2018-05-17T04:13:14.178Z,8.43
2018-05-17T04:14:20.573Z,7.75
2018-05-17T04:15:26.665Z,8.85
2018-05-17T04:16:32.021Z,8.63
2018-05-17T04:17:37.375Z,8.32
2018-05-17T04:18:42.766Z,7.95
2018-05-17T04:19:48.192Z,8.70
2018-05-17T04:20:54.176Z,8.48
2018-05-17T04:21:59.872Z,8.00
2018-05-17T04:23:05.223Z,7.20
2018-05-17T04:24:10.625Z,8.02
2018-05-17T04:25:16.190Z,8.70
2018-05-17T04:26:21.865Z,7.80
2018-05-17T04:27:27.217Z,7.85
2018-05-17T04:28:32.631Z,7.68
2018-05-17T04:29:38.788Z,7.40
2018-05-17T04:30:44.203Z,7.50
2018-05-17T04:31:49.618Z,8.20
2018-05-17T04:32:55.265Z,7.65
2018-05-17T04:34:00.676Z,8.45
2018-05-17T04:35:06.087Z,7.40
2018-05-17T04:36:11.590Z,7.43
2018-05-17T04:37:16.951Z,7.77
2018-05-17T04:38:22.646Z,7.50
2018-05-17T04:39:28.018Z,7.87
2018-05-17T04:40:33.522Z,9.10
2018-05-17T04:41:38.907Z,7.05
2018-05-17T04:42:44.306Z,7.35
2018-05-17T04:43:49.657Z,8.20
2018-05-17T04:44:55.025Z,7.97
2018-05-17T04:46:00.428Z,7.60
2018-05-17T04:47:05.916Z,8.18
2018-05-17T04:48:11.263Z,8.40
2018-05-17T04:49:16.623Z,8.38
2018-05-17T04:50:22.273Z,8.18
2018-05-17T04:51:27.640Z,8.60
2018-05-17T04:52:33.296Z,11.30
2018-05-17T04:53:38.686Z,9.80
2018-05-17T04:54:44.107Z,10.80
2018-05-17T04:55:49.437Z,12.15
2018-05-17T04:56:54.836Z,11.90
2018-05-17T04:58:00.291Z,11.20
2018-05-17T04:59:05.731Z,12.93
2018-05-17T05:00:11.203Z,12.02
2018-05-17T05:01:16.591Z,12.77
2018-05-17T05:03:34.144Z,12.27
2018-05-17T05:04:39.575Z,11.38
2018-05-17T05:05:44.953Z,12.50
2018-05-17T05:06:50.528Z,10.23
2018-05-17T05:07:56.679Z,9.90
2018-05-17T05:09:02.082Z,11.55
2018-05-17T05:10:12.463Z,12.48
2018-05-17T05:11:17.816Z,13.88
2018-05-17T05:12:23.172Z,17.90
2018-05-17T05:13:28.924Z,18.80
2018-05-17T05:14:34.321Z,17.60
2018-05-17T05:15:39.697Z,16.45
2018-05-17T05:16:45.099Z,16.00
2018-05-17T05:17:50.520Z,17.65
2018-05-17T05:18:55.890Z,19.60
2018-05-17T05:20:01.267Z,20.08
2018-05-17T05:21:06.764Z,15.55
2018-05-17T05:22:12.135Z,15.18
2018-05-17T05:23:17.523Z,13.83
2018-05-17T05:24:22.920Z,12.68
2018-05-17T05:25:28.307Z,12.25
2018-05-17T05:26:33.669Z,12.50
2018-05-17T05:27:39.146Z,11.63
2018-05-17T05:28:44.542Z,11.55
2018-05-17T05:29:49.899Z,12.43
2018-05-17T05:30:55.280Z,16.25
2018-05-17T05:32:00.815Z,17.30
2018-05-17T05:33:06.238Z,14.63
2018-05-17T05:34:11.586Z,15.60
2018-05-17T05:35:16.986Z,14.23
2018-05-17T05:36:22.357Z,19.37
2018-05-17T05:37:27.755Z,16.15
2018-05-17T05:38:33.188Z,18.95
2018-05-17T05:39:38.759Z,18.57
2018-05-17T05:40:44.161Z,20.75
2018-05-17T05:41:49.822Z,19.35
2018-05-17T05:42:55.304Z,18.52
2018-05-17T05:44:00.676Z,19.00
2018-05-17T05:45:06.252Z,21.77
2018-05-17T05:46:11.656Z,21.87
2018-05-17T05:47:17.038Z,24.25
2018-05-17T05:48:22.605Z,24.08
2018-05-17T05:49:28.437Z,23.02
2018-05-17T05:50:34.134Z,22.05
2018-05-17T05:51:39.552Z,23.55
2018-05-17T05:52:45.231Z,21.25
2018-05-17T05:53:50.640Z,21.17
2018-05-17T05:54:56.019Z,21.30
2018-05-17T05:56:01.411Z,21.90
2018-05-17T05:57:06.769Z,22.37
2018-05-17T05:58:12.287Z,20.65
2018-05-17T05:59:17.655Z,20.90
2018-05-17T06:00:23.036Z,22.23
2018-05-17T06:01:28.417Z,22.30
2018-05-17T06:02:33.806Z,22.50
2018-05-17T06:03:39.254Z,21.65
2018-05-17T06:04:44.643Z,22.30
2018-05-17T06:05:50.082Z,22.80
2018-05-17T06:06:55.512Z,23.15
2018-05-17T06:08:00.973Z,25.60
2018-05-17T06:09:06.483Z,25.20
2018-05-17T06:10:12.272Z,24.75
2018-05-17T06:11:17.730Z,26.27
2018-05-17T06:12:23.180Z,27.30
2018-05-17T06:13:28.603Z,27.85
2018-05-17T06:14:33.978Z,29.80
2018-05-17T06:15:39.362Z,28.38
2018-05-17T06:16:45.167Z,29.77
2018-05-17T06:17:50.598Z,30.17
2018-05-17T06:18:56.058Z,29.87
2018-05-17T06:20:01.427Z,31.30
2018-05-17T06:21:07.289Z,32.85
2018-05-17T06:22:12.679Z,33.72
2018-05-17T06:23:18.122Z,34.72
2018-05-17T06:24:23.489Z,35.97
2018-05-17T06:25:28.939Z,35.47
2018-05-17T06:26:34.351Z,36.03
2018-05-17T06:27:39.713Z,33.83
2018-05-17T06:28:45.546Z,33.90
2018-05-17T06:29:50.943Z,34.30
2018-05-17T06:30:56.347Z,33.40
2018-05-17T06:32:01.758Z,32.63
2018-05-17T06:33:07.433Z,34.03
2018-05-17T06:34:12.936Z,31.65
2018-05-17T06:35:18.348Z,34.13
2018-05-17T06:36:23.718Z,33.40
2018-05-17T06:37:29.132Z,34.95
2018-05-17T06:38:34.555Z,33.42
2018-05-17T06:39:40.154Z,34.03
2018-05-17T06:40:45.542Z,33.97
2018-05-17T06:41:50.929Z,35.45
2018-05-17T06:42:56.294Z,35.00
2018-05-17T06:44:01.767Z,35.63
2018-05-17T06:45:07.170Z,35.60
2018-05-17T06:46:12.582Z,36.72
2018-05-17T06:48:02.792Z,35.42
2018-05-17T06:49:08.180Z,34.95
2018-05-17T06:50:13.677Z,34.43
2018-05-17T06:51:19.110Z,34.28
2018-05-17T06:52:24.486Z,33.35
2018-05-17T06:53:29.976Z,34.00
2018-05-17T06:54:35.518Z,32.97
2018-05-17T06:55:41.314Z,31.50
2018-05-17T06:56:46.741Z,32.63
2018-05-17T06:57:52.138Z,32.42
2018-05-17T06:58:57.506Z,33.05
2018-05-17T07:00:02.959Z,33.63
2018-05-17T07:01:08.472Z,33.08
2018-05-17T07:02:13.826Z,33.65
2018-05-17T07:03:19.213Z,33.67
2018-05-17T07:04:24.762Z,32.88
2018-05-17T07:05:30.222Z,33.40
2018-05-17T07:06:35.622Z,32.47
2018-05-17T07:07:41.033Z,31.92
2018-05-17T07:08:46.408Z,31.30
2018-05-17T07:09:51.969Z,36.53
2018-05-17T07:10:57.413Z,31.92
2018-05-17T07:12:02.852Z,29.63
2018-05-17T07:13:08.271Z,28.60
2018-05-17T07:14:13.747Z,29.75
2018-05-17T07:15:19.149Z,29.80
2018-05-17T07:16:24.539Z,29.08
2018-05-17T07:17:29.913Z,28.10
2018-05-17T07:18:35.368Z,30.20
2018-05-17T07:19:40.737Z,30.62
2018-05-17T07:20:46.140Z,31.98
2018-05-17T07:21:51.585Z,31.20
2018-05-17T07:22:57.080Z,31.12
2018-05-17T07:24:02.529Z,31.42
2018-05-17T07:25:08.371Z,31.00
2018-05-17T07:26:13.763Z,33.20
2018-05-17T07:27:19.165Z,31.57
2018-05-17T07:28:24.638Z,33.05
2018-05-17T07:29:30.022Z,33.05
2018-05-17T07:30:35.461Z,33.88
2018-05-17T07:31:40.839Z,33.08
2018-05-17T07:32:46.272Z,32.67
2018-05-17T07:33:51.665Z,33.22
2018-05-17T07:34:57.235Z,33.33
2018-05-17T07:36:02.977Z,32.03
2018-05-17T07:37:08.343Z,33.00
2018-05-17T07:38:13.741Z,34.05
2018-05-17T07:39:19.134Z,34.28
2018-05-17T07:40:24.700Z,36.30
2018-05-17T07:41:30.029Z,36.97
2018-05-17T07:42:35.487Z,36.70
2018-05-17T07:43:40.817Z,38.25
2018-05-17T07:44:46.135Z,38.05
2018-05-17T07:45:51.501Z,39.00
2018-05-17T07:46:57.128Z,38.03
2018-05-17T07:48:02.470Z,38.38
2018-05-17T07:49:07.772Z,37.30
2018-05-17T07:50:13.247Z,39.30
2018-05-17T07:51:18.784Z,37.90
2018-05-17T07:52:24.387Z,37.67
2018-05-17T07:53:29.733Z,37.67
2018-05-17T07:54:35.133Z,38.50
2018-05-17T07:55:40.553Z,37.78
2018-05-17T07:56:45.999Z,39.27
2018-05-17T07:57:51.353Z,35.97
2018-05-17T07:58:56.738Z,36.25
2018-05-17T08:00:02.070Z,36.00
2018-05-17T08:01:07.477Z,34.63
2018-05-17T08:02:12.912Z,35.83
2018-05-17T08:03:18.526Z,35.72
2018-05-17T08:04:23.850Z,35.33
2018-05-17T08:05:29.160Z,34.42
2018-05-17T08:06:34.580Z,34.65
2018-05-17T08:07:40.029Z,36.22
2018-05-17T08:08:45.397Z,35.45
2018-05-17T08:09:50.775Z,37.50
2018-05-17T08:10:56.112Z,36.78
2018-05-17T08:12:01.606Z,33.88
2018-05-17T08:13:07.046Z,34.15
2018-05-17T08:14:12.389Z,35.90
2018-05-17T08:15:17.726Z,33.85
2018-05-17T08:16:23.139Z,36.10
2018-05-17T08:17:28.542Z,34.80
2018-05-17T08:18:33.884Z,33.47
2018-05-17T08:19:39.183Z,34.65
2018-05-17T08:20:44.851Z,34.30
2018-05-17T08:21:50.496Z,32.78
2018-05-17T08:22:55.885Z,33.67
2018-05-17T08:24:01.212Z,32.85
2018-05-17T08:25:06.522Z,31.35
2018-05-17T08:26:11.831Z,31.15
2018-05-17T08:27:17.363Z,28.33
2018-05-17T08:28:22.694Z,27.65
2018-05-17T08:29:27.998Z,24.55
2018-05-17T08:30:33.353Z,25.42
2018-05-17T08:31:39.393Z,25.33
2018-05-17T08:32:44.758Z,26.00
2018-05-17T08:33:50.133Z,26.87
2018-05-17T08:34:55.506Z,26.42
2018-05-17T08:36:00.996Z,25.40
2018-05-17T08:37:06.522Z,25.15
2018-05-17T08:38:11.972Z,25.33
2018-05-17T08:39:17.377Z,27.30
2018-05-17T08:40:22.758Z,27.30
2018-05-17T08:41:28.286Z,26.85
2018-05-17T08:42:34.043Z,27.17
2018-05-17T08:43:39.451Z,26.17
2018-05-17T08:44:44.841Z,27.20
2018-05-17T08:45:50.274Z,24.92
2018-05-17T08:46:55.693Z,24.08
2018-05-17T08:48:01.731Z,22.62
2018-05-17T08:49:07.152Z,22.83
2018-05-17T08:50:12.547Z,21.87
2018-05-17T08:51:17.959Z,20.25
2018-05-17T08:52:23.403Z,21.60
2018-05-17T08:53:28.809Z,20.20
2018-05-17T08:54:34.458Z,20.40
2018-05-17T08:55:39.885Z,20.37
2018-05-17T08:56:45.449Z,19.10
2018-05-17T08:57:50.861Z,17.50
2018-05-17T08:58:56.273Z,18.87
2018-05-17T09:00:02.017Z,19.45
2018-05-17T09:01:07.459Z,19.95
2018-05-17T09:02:13.031Z,21.33
2018-05-17T09:03:18.365Z,22.52
2018-05-17T09:04:23.734Z,22.95
2018-05-17T09:05:29.131Z,24.70
2018-05-17T09:06:34.517Z,23.40
2018-05-17T09:07:39.971Z,23.17
2018-05-17T09:08:45.348Z,25.55
2018-05-17T09:09:50.792Z,23.80
2018-05-17T09:10:56.536Z,25.00
2018-05-17T09:12:01.989Z,24.75
2018-05-17T09:13:07.432Z,26.50
2018-05-17T09:14:12.853Z,26.62
2018-05-17T09:15:18.254Z,27.70
2018-05-17T09:16:23.665Z,30.50
2018-05-17T09:17:29.082Z,28.30
2018-05-17T09:18:34.489Z,26.67
2018-05-17T09:19:39.890Z,26.00
2018-05-17T09:20:45.314Z,25.73
2018-05-17T09:21:51.088Z,25.42
2018-05-17T09:22:56.491Z,24.55
2018-05-17T09:24:01.965Z,23.98
2018-05-17T09:25:07.401Z,22.30
2018-05-17T09:26:12.812Z,21.35
2018-05-17T09:27:18.269Z,21.90
2018-05-17T09:28:23.967Z,20.85
2018-05-17T09:29:29.372Z,22.53
2018-05-17T09:30:34.791Z,22.48
2018-05-17T09:31:40.340Z,20.73
2018-05-17T09:32:45.732Z,20.95
2018-05-17T09:33:51.140Z,21.27
2018-05-17T09:34:56.566Z,20.90
2018-05-17T09:36:01.983Z,21.35
2018-05-17T09:37:07.675Z,21.65
2018-05-17T09:38:13.335Z,21.67
2018-05-17T09:39:19.043Z,21.25
2018-05-17T09:40:24.487Z,20.20
2018-05-17T09:41:29.845Z,21.15
2018-05-17T09:42:35.387Z,20.05
2018-05-17T09:43:40.802Z,21.85
2018-05-17T09:44:46.239Z,20.73
2018-05-17T09:45:51.712Z,22.00
2018-05-17T09:46:57.133Z,22.43
2018-05-17T09:48:02.562Z,22.27
2018-05-17T09:49:07.973Z,24.40
2018-05-17T09:50:13.401Z,21.52
2018-05-17T09:51:18.797Z,20.60
2018-05-17T09:52:24.346Z,22.17
2018-05-17T09:53:29.731Z,22.92
2018-05-17T09:54:35.388Z,23.37
2018-05-17T09:55:41.234Z,22.15
2018-05-17T09:56:46.633Z,21.90
2018-05-17T09:57:52.093Z,21.10
2018-05-17T09:58:57.589Z,21.42
2018-05-17T10:00:03.030Z,21.15
2018-05-17T10:01:08.725Z,20.23
2018-05-17T10:02:14.232Z,18.75
2018-05-17T10:03:20.146Z,19.23
2018-05-17T10:04:25.539Z,18.10
2018-05-17T10:05:31.017Z,18.10
2018-05-17T10:06:36.746Z,16.60
2018-05-17T10:07:42.181Z,17.42
2018-05-17T10:08:47.672Z,16.65
2018-05-17T10:09:53.066Z,15.18
2018-05-17T10:10:58.486Z,15.13
2018-05-17T10:12:03.904Z,14.30
2018-05-17T10:13:09.525Z,14.30
2018-05-17T10:14:14.910Z,11.30
2018-05-17T10:15:20.336Z,12.10
2018-05-17T10:16:25.773Z,12.18
2018-05-17T10:17:31.484Z,11.90
2018-05-17T10:18:36.902Z,12.60
2018-05-17T10:19:42.325Z,11.70
2018-05-17T10:20:47.759Z,11.70
2018-05-17T10:21:53.761Z,10.93
2018-05-17T10:22:59.240Z,10.32
2018-05-17T10:24:04.982Z,11.48
2018-05-17T10:25:10.391Z,11.73
2018-05-17T10:26:15.833Z,11.55
2018-05-17T10:27:21.261Z,11.37
2018-05-17T10:28:26.768Z,12.98
2018-05-17T10:29:32.194Z,12.73
2018-05-17T10:30:37.901Z,12.57
2018-05-17T10:31:43.346Z,12.50
2018-05-17T10:32:48.749Z,13.00
2018-05-17T10:33:54.684Z,13.35
2018-05-17T10:35:00.157Z,14.00
2018-05-17T10:36:05.773Z,11.73
2018-05-17T10:37:11.255Z,11.85
2018-05-17T10:38:16.747Z,11.40
2018-05-17T10:39:22.189Z,12.37
2018-05-17T10:40:27.611Z,11.35
2018-05-17T10:41:33.055Z,11.60
2018-05-17T10:42:38.463Z,11.60
2018-05-17T10:43:43.922Z,12.02
2018-05-17T10:44:49.620Z,11.32
2018-05-17T10:45:55.098Z,11.80
2018-05-17T10:47:01.196Z,11.45
2018-05-17T10:48:06.827Z,12.00
2018-05-17T10:49:12.545Z,10.82
2018-05-17T10:50:17.995Z,11.80
2018-05-17T10:51:23.569Z,11.07
2018-05-17T10:52:28.993Z,11.75
2018-05-17T10:53:34.438Z,9.93
2018-05-17T10:54:40.034Z,11.60
2018-05-17T10:55:45.372Z,15.95
2018-05-17T10:56:51.076Z,17.17
2018-05-17T10:57:56.460Z,14.25
2018-05-17T10:59:01.941Z,15.88
2018-05-17T11:00:07.595Z,16.77
2018-05-17T11:01:13.192Z,18.15
2018-05-17T11:02:19.156Z,14.50
2018-05-17T11:03:24.630Z,13.00
2018-05-17T11:04:30.088Z,21.23
2018-05-17T11:05:35.583Z,13.75
2018-05-17T11:06:41.068Z,15.48
2018-05-17T11:07:46.511Z,10.20
2018-05-17T11:08:52.018Z,7.93
2018-05-17T11:09:57.496Z,9.25
2018-05-17T11:11:03.061Z,8.65
2018-05-17T11:12:08.786Z,10.38
2018-05-17T11:13:14.557Z,9.18
2018-05-17T11:14:20.011Z,8.80
2018-05-17T11:15:25.583Z,8.40
2018-05-17T11:16:31.056Z,8.50
2018-05-17T11:17:36.548Z,9.23
2018-05-17T11:18:42.002Z,8.88
2018-05-17T11:19:47.450Z,7.85
2018-05-17T11:20:52.896Z,6.85
2018-05-17T11:21:58.436Z,8.60
2018-05-17T11:23:03.900Z,8.30
2018-05-17T11:24:09.433Z,9.88
2018-05-17T11:25:14.908Z,8.23
2018-05-17T11:26:20.423Z,8.00
2018-05-17T11:27:25.876Z,8.38
2018-05-17T11:28:31.293Z,7.90
2018-05-17T11:29:37.016Z,8.82
2018-05-17T11:30:42.459Z,7.83
2018-05-17T11:31:47.922Z,7.72
2018-05-17T11:32:53.448Z,7.00
2018-05-17T11:33:59.224Z,7.80
2018-05-17T11:35:04.692Z,7.87
2018-05-17T11:36:10.165Z,8.10
2018-05-17T11:37:15.605Z,10.43
2018-05-17T11:38:21.056Z,25.05
2018-05-17T11:39:26.485Z,21.27
2018-05-17T11:40:31.938Z,11.55
2018-05-17T11:41:37.817Z,11.10
2018-05-17T11:42:43.248Z,17.10
2018-05-17T11:43:48.697Z,25.12
2018-05-17T11:44:54.212Z,19.23
2018-05-17T11:45:59.653Z,26.20
2018-05-17T11:47:05.242Z,11.27
2018-05-17T11:48:10.630Z,17.70
2018-05-17T11:49:16.123Z,12.05
2018-05-17T11:50:21.664Z,9.32
2018-05-17T11:51:27.391Z,10.30
2018-05-17T11:52:33.097Z,9.10
2018-05-17T11:53:38.585Z,10.93
2018-05-17T11:54:44.044Z,9.02
2018-05-17T11:55:49.441Z,9.25
2018-05-17T11:56:54.872Z,7.57
2018-05-17T11:58:00.367Z,8.80
2018-05-17T11:59:05.800Z,8.43
2018-05-17T12:00:11.256Z,9.27
2018-05-17T12:01:16.713Z,8.80
2018-05-17T12:02:22.239Z,8.95
2018-05-17T12:03:27.667Z,8.57
2018-05-17T12:04:33.079Z,8.60
2018-05-17T12:05:38.502Z,7.55
2018-05-17T12:06:43.939Z,7.22
2018-05-17T12:07:49.386Z,6.85
2018-05-17T12:08:55.135Z,7.68
2018-05-17T12:10:00.565Z,7.47
2018-05-17T12:11:06.052Z,7.60
2018-05-17T12:12:11.607Z,7.30
2018-05-17T12:13:17.025Z,8.07
2018-05-17T12:14:22.467Z,7.95
2018-05-17T12:15:27.903Z,7.65
2018-05-17T12:16:33.427Z,7.20
2018-05-17T12:17:38.802Z,7.13
2018-05-17T12:18:44.212Z,8.52
2018-05-17T12:19:50.062Z,6.90
2018-05-17T12:20:55.443Z,6.85
2018-05-17T12:22:00.931Z,6.90
2018-05-17T12:23:06.351Z,7.18
2018-05-17T12:24:13.161Z,7.93
2018-05-17T12:25:18.608Z,7.70
2018-05-17T12:26:24.061Z,7.50
2018-05-17T12:27:29.553Z,8.60
2018-05-17T12:28:35.030Z,7.60
2018-05-17T12:29:40.497Z,7.20
2018-05-17T12:30:45.933Z,7.85
2018-05-17T12:31:51.672Z,7.30
2018-05-17T12:32:57.164Z,7.90
2018-05-17T12:34:02.618Z,7.82
2018-05-17T12:35:08.252Z,7.60
2018-05-17T12:36:13.915Z,7.72
2018-05-17T12:37:19.563Z,7.68
2018-05-17T12:38:25.146Z,7.78
2018-05-17T12:39:30.983Z,7.68
2018-05-17T12:40:36.466Z,7.60
2018-05-17T12:41:41.847Z,6.75
2018-05-17T12:42:47.290Z,7.47
2018-05-17T12:43:52.658Z,6.87
2018-05-17T12:44:58.345Z,7.25
2018-05-17T12:46:03.763Z,6.78
2018-05-17T12:47:09.360Z,7.00
2018-05-17T12:48:15.260Z,7.30
2018-05-17T12:49:20.964Z,7.70
2018-05-17T12:50:26.484Z,6.80
2018-05-17T12:51:32.043Z,7.30
2018-05-17T12:52:37.771Z,7.13
2018-05-17T12:53:43.224Z,11.05
2018-05-17T12:54:48.677Z,12.00
2018-05-17T12:55:54.161Z,9.40
2018-05-17T12:56:59.617Z,8.15
2018-05-17T12:58:05.122Z,11.55
2018-05-17T12:59:10.817Z,11.63
2018-05-17T13:00:17.151Z,15.48
2018-05-17T13:01:22.603Z,16.90
2018-05-17T13:02:28.206Z,16.70
2018-05-17T13:03:33.754Z,14.50
2018-05-17T13:04:39.209Z,15.40
2018-05-17T13:05:44.749Z,12.70
2018-05-17T13:06:53.687Z,17.70
2018-05-17T13:07:59.543Z,8.95
2018-05-17T13:09:07.141Z,12.73
2018-05-17T13:10:12.704Z,11.32
2018-05-17T13:11:18.215Z,9.27
2018-05-17T13:12:23.637Z,9.45
2018-05-17T13:13:29.421Z,11.65
2018-05-17T13:14:34.887Z,8.88
2018-05-17T13:15:40.385Z,11.20
2018-05-17T13:16:45.816Z,7.47
2018-05-17T13:17:51.310Z,7.10
2018-05-17T13:18:56.851Z,7.43
2018-05-17T13:20:02.312Z,6.90
2018-05-17T13:21:07.752Z,7.37
2018-05-17T13:22:13.233Z,7.05
2018-05-17T13:23:18.815Z,7.28
2018-05-17T13:24:24.249Z,8.10
2018-05-17T13:25:29.945Z,6.80
2018-05-17T13:26:35.368Z,7.00
2018-05-17T13:27:41.072Z,7.00
2018-05-17T13:28:47.358Z,8.48
2018-05-17T13:29:53.099Z,7.45
2018-05-17T13:30:58.502Z,6.65
2018-05-17T13:32:03.936Z,7.22
2018-05-17T13:33:09.368Z,7.70
2018-05-17T13:34:14.887Z,7.40
2018-05-17T13:35:20.334Z,8.15
2018-05-17T13:36:25.833Z,6.45
2018-05-17T13:37:31.358Z,7.72
2018-05-17T13:38:36.774Z,7.40
2018-05-17T13:39:42.290Z,6.80
2018-05-17T13:40:47.729Z,6.97
2018-05-17T13:41:53.150Z,6.97
2018-05-17T13:42:58.634Z,6.28
2018-05-17T13:44:04.085Z,6.85
2018-05-17T13:45:09.629Z,6.30
2018-05-17T13:46:15.075Z,6.90
2018-05-17T13:47:20.515Z,7.35
2018-05-17T13:48:25.934Z,10.40
2018-05-17T13:49:33.224Z,25.70
2018-05-17T13:50:41.340Z,8.15
2018-05-17T13:51:47.426Z,13.40
2018-05-17T13:53:02.249Z,22.33
2018-05-17T13:54:08.268Z,16.05
2018-05-17T13:55:22.162Z,12.47
2018-05-17T13:56:43.362Z,13.35
2018-05-17T13:57:57.207Z,15.27
2018-05-17T13:59:04.863Z,20.67
2018-05-17T14:00:12.733Z,23.60
2018-05-17T14:01:33.230Z,24.90
2018-05-17T14:02:49.457Z,10.23
2018-05-17T14:03:55.907Z,16.60
2018-05-17T14:05:02.363Z,13.50
2018-05-17T14:06:08.772Z,15.65
2018-05-17T14:07:15.302Z,11.40
2018-05-17T14:08:21.477Z,14.45
2018-05-17T14:09:27.810Z,17.30
2018-05-17T14:10:33.950Z,12.20
2018-05-17T14:11:40.044Z,6.70
2018-05-17T14:12:46.143Z,7.22
2018-05-17T14:13:52.989Z,10.40
2018-05-17T14:15:00.052Z,9.50
2018-05-17T14:16:10.287Z,6.80
2018-05-17T14:17:16.367Z,7.25
2018-05-17T14:18:22.091Z,8.20
2018-05-17T14:19:27.991Z,6.97